Terminal Aerodrome Forecast
Issued by NWS Honolulu, HI

Home | Current Version | Previous Version | Text Only | Print | Product List | Glossary On
Versions: 1 2 3 4 5 6 7 8 9 10 11 12 13 14 15 16 17 18 19 20 21 22 23
000
FTPA31 PHFO 191120
TAFHNL
TAF
PHNL 191120Z 1912/2018 05007KT P6SM VCSH SCT025 SCT040 BKN060
     FM192000 06015G23KT P6SM VCSH SCT025 BKN050
     FM200500 06009KT P6SM VCSH SCT025 BKN050
     FM201000 06008KT 6SM -SHRA SCT025 BKN040=

USA.gov is the U.S. government's official web portal to all federal, state and local government web resources and services.